createdAt,value
2023-02-18T00:01:55.268Z,99407.34
2023-02-18T00:06:48.018Z,99425.64
2023-02-18T00:11:41.354Z,99420.73
2023-02-18T00:16:36.695Z,99434.10
2023-02-18T00:21:30.264Z,99456.09
2023-02-18T00:26:23.620Z,99465.84
2023-02-18T00:31:22.586Z,99467.79
2023-02-18T00:36:18.505Z,99471.83
2023-02-18T00:41:11.341Z,99475.27
2023-02-18T00:46:04.285Z,99470.41
2023-02-18T00:50:57.955Z,99478.13
2023-02-18T00:55:50.747Z,99473.64
2023-02-18T01:00:43.936Z,99483.83
2023-02-18T01:05:39.914Z,99473.66
2023-02-18T01:10:33.876Z,99490.73
2023-02-18T01:15:26.966Z,99487.45
2023-02-18T01:20:21.376Z,99480.55
2023-02-18T01:25:15.371Z,99484.70
2023-02-18T01:30:12.185Z,99480.73
2023-02-18T01:35:07.835Z,99477.98
2023-02-18T01:40:01.121Z,99479.08
2023-02-18T01:44:54.791Z,99486.92
2023-02-18T01:49:52.293Z,99481.73
2023-02-18T01:54:51.671Z,99471.44
2023-02-18T01:59:49.277Z,99471.11
2023-02-18T02:04:42.747Z,99475.08
2023-02-18T02:09:36.546Z,99474.41
2023-02-18T02:14:40.861Z,99475.13
2023-02-18T02:19:52.029Z,99466.85
2023-02-18T02:25:29.756Z,99462.85
2023-02-18T02:30:22.985Z,99468.35
2023-02-18T02:35:28.369Z,99454.67
2023-02-18T02:40:36.904Z,99462.02
2023-02-18T02:46:11.336Z,99466.29
2023-02-18T02:51:11.580Z,99471.42
2023-02-18T02:56:05.158Z,99476.73
2023-02-18T03:01:30.142Z,99481.71
2023-02-18T03:06:45.239Z,99488.89
2023-02-18T03:12:02.940Z,99498.51
2023-02-18T03:17:03.643Z,99504.50
2023-02-18T03:22:19.697Z,99514.98
2023-02-18T03:27:22.167Z,99510.63
2023-02-18T03:32:19.439Z,99519.70
2023-02-18T03:37:13.954Z,99517.91
2023-02-18T03:42:07.571Z,99523.17
2023-02-18T03:47:00.916Z,99526.21
2023-02-18T03:51:53.912Z,99528.92
2023-02-18T03:56:47.259Z,99532.86
2023-02-18T04:01:40.255Z,99538.89
2023-02-18T04:06:33.316Z,99541.95
2023-02-18T04:11:26.139Z,99547.63
2023-02-18T04:16:18.986Z,99548.63
2023-02-18T04:21:11.827Z,99546.70
2023-02-18T04:26:05.076Z,99548.05
2023-02-18T04:30:59.119Z,99551.80
2023-02-18T04:35:51.917Z,99560.58
2023-02-18T04:40:44.706Z,99553.32
2023-02-18T04:45:39.655Z,99554.80
2023-02-18T04:50:32.478Z,99560.73
2023-02-18T04:55:25.299Z,99566.61
2023-02-18T05:00:20.782Z,99559.70
2023-02-18T05:05:14.988Z,99567.77
2023-02-18T05:10:08.880Z,99567.42
2023-02-18T05:15:01.721Z,99572.26
2023-02-18T05:19:55.331Z,99567.61
2023-02-18T05:24:48.340Z,99573.92
2023-02-18T05:29:41.111Z,99576.46
2023-02-18T05:34:33.950Z,99601.40
2023-02-18T05:39:26.763Z,99605.16
2023-02-18T05:44:31.924Z,99609.46
2023-02-18T05:49:26.808Z,99617.90
2023-02-18T05:54:19.580Z,99623.23
2023-02-18T05:59:12.414Z,99622.38
2023-02-18T06:04:05.252Z,99628.61
2023-02-18T06:08:58.009Z,99633.61
2023-02-18T06:13:50.789Z,99633.10
2023-02-18T06:18:43.612Z,99638.98
2023-02-18T06:23:36.501Z,99640.20
2023-02-18T06:28:29.448Z,99654.20
2023-02-18T06:33:22.734Z,99658.50
2023-02-18T06:38:15.530Z,99666.48
2023-02-18T06:43:08.283Z,99673.87
2023-02-18T06:48:03.951Z,99676.06
2023-02-18T06:52:56.742Z,99672.51
2023-02-18T06:57:49.553Z,99672.62
2023-02-18T07:02:42.381Z,99676.96
2023-02-18T07:07:37.548Z,99681.97
2023-02-18T07:12:30.318Z,99670.99
2023-02-18T07:17:23.103Z,99670.96
2023-02-18T07:22:15.901Z,99682.19
2023-02-18T07:27:09.094Z,99667.19
2023-02-18T07:32:01.919Z,99677.73
2023-02-18T07:36:54.752Z,99676.73
2023-02-18T07:41:49.535Z,99686.42
2023-02-18T07:46:43.390Z,99681.45
2023-02-18T07:51:37.854Z,99683.29
2023-02-18T07:56:30.713Z,99694.09
2023-02-18T08:01:23.493Z,99689.77
2023-02-18T08:06:23.464Z,99690.73
2023-02-18T08:11:19.394Z,99694.73
2023-02-18T08:16:12.681Z,99701.16
2023-02-18T08:21:05.814Z,99700.36
2023-02-18T08:25:58.636Z,99711.91
2023-02-18T08:30:54.810Z,99712.42
2023-02-18T08:35:50.004Z,99712.34
2023-02-18T08:40:43.117Z,99705.66
2023-02-18T08:45:38.151Z,99702.05
2023-02-18T08:50:31.629Z,99700.35
2023-02-18T08:55:25.212Z,99706.81
2023-02-18T09:00:19.030Z,99707.92
2023-02-18T09:05:12.431Z,99706.17
2023-02-18T09:10:06.294Z,99713.55
2023-02-18T09:14:59.191Z,99715.83
2023-02-18T09:19:51.967Z,99722.56
2023-02-18T09:24:44.807Z,99720.38
2023-02-18T09:29:40.873Z,99724.86
2023-02-18T09:34:34.251Z,99734.85
2023-02-18T09:39:27.322Z,99738.54
2023-02-18T09:44:27.505Z,99734.95
2023-02-18T09:49:24.883Z,99730.66
2023-02-18T09:54:21.082Z,99735.54
2023-02-18T09:59:23.937Z,99740.89
2023-02-18T10:04:30.474Z,99742.14
2023-02-18T10:09:40.335Z,99752.48
2023-02-18T10:14:36.120Z,99754.39
2023-02-18T10:19:41.040Z,99755.06
2023-02-18T10:24:43.956Z,99760.16
2023-02-18T10:29:37.642Z,99750.91
2023-02-18T10:34:39.507Z,99752.89
2023-02-18T10:39:53.285Z,99750.83
2023-02-18T10:44:58.045Z,99757.42
2023-02-18T10:50:01.461Z,99758.75
2023-02-18T10:55:00.973Z,99750.58
2023-02-18T11:00:16.254Z,99748.14
2023-02-18T11:05:24.877Z,99748.30
2023-02-18T11:10:23.398Z,99743.78
2023-02-18T11:15:16.404Z,99743.91
2023-02-18T11:20:26.470Z,99740.67
2023-02-18T11:25:22.432Z,99736.21
2023-02-18T11:30:27.996Z,99742.98
2023-02-18T11:35:23.937Z,99730.13
2023-02-18T11:40:42.594Z,99724.21
2023-02-18T11:45:36.898Z,99723.24
2023-02-18T11:50:35.359Z,99729.84
2023-02-18T11:55:31.215Z,99715.05
2023-02-18T12:00:43.100Z,99718.42
2023-02-18T12:05:39.008Z,99725.93
2023-02-18T12:10:47.776Z,99718.13
2023-02-18T12:15:49.574Z,99718.17
2023-02-18T12:20:59.841Z,99705.02
2023-02-18T12:25:52.564Z,99713.03
2023-02-18T12:31:09.524Z,99703.13
2023-02-18T12:36:11.840Z,99698.16
2023-02-18T12:41:11.201Z,99705.02
2023-02-18T12:46:19.447Z,99695.75
2023-02-18T12:51:18.428Z,99689.33
2023-02-18T12:56:36.577Z,99687.41
2023-02-18T13:01:32.023Z,99673.91
2023-02-18T13:06:43.227Z,99677.05
2023-02-18T13:11:57.853Z,99685.05
2023-02-18T13:16:56.271Z,99677.26
2023-02-18T13:21:56.605Z,99666.27
2023-02-18T13:26:52.843Z,99662.06
2023-02-18T13:31:56.003Z,99665.13
2023-02-18T13:37:13.728Z,99664.34
2023-02-18T13:42:18.904Z,99667.69
2023-02-18T13:47:11.980Z,99664.40
2023-02-18T13:52:06.042Z,99666.52
2023-02-18T13:57:06.067Z,99670.90
2023-02-18T14:02:28.964Z,99666.02
2023-02-18T14:07:39.215Z,99661.05
2023-02-18T14:12:31.962Z,99654.14
2023-02-18T14:17:25.901Z,99659.27
2023-02-18T14:22:34.194Z,99655.36
2023-02-18T14:27:27.709Z,99638.64
2023-02-18T14:32:22.517Z,99639.41
2023-02-18T14:37:21.198Z,99633.96
2023-02-18T14:42:19.961Z,99618.75
2023-02-18T14:47:28.993Z,99609.41
2023-02-18T14:52:34.104Z,99606.80
2023-02-18T14:57:37.867Z,99601.60
2023-02-18T15:02:32.040Z,99598.45
2023-02-18T15:07:24.838Z,99599.30
2023-02-18T15:12:25.637Z,99594.45
2023-02-18T15:17:23.097Z,99595.29
2023-02-18T15:22:22.236Z,99599.23
2023-02-18T15:27:30.274Z,99617.39
2023-02-18T15:32:29.578Z,99617.30
2023-02-18T15:37:22.432Z,99628.77
2023-02-18T15:42:27.581Z,99627.90
2023-02-18T15:47:21.816Z,99624.13
2023-02-18T15:52:15.182Z,99626.08
2023-02-18T15:57:10.920Z,99628.97
2023-02-18T16:02:10.085Z,99627.52
2023-02-18T16:07:19.884Z,99627.53
2023-02-18T16:12:33.639Z,99630.61
2023-02-18T16:17:29.239Z,99625.58
2023-02-18T16:22:36.452Z,99623.73
2023-02-18T16:27:35.949Z,99628.25
2023-02-18T16:32:28.699Z,99630.31
2023-02-18T16:37:39.974Z,99632.23
2023-02-18T16:42:32.783Z,99628.97
2023-02-18T16:47:25.561Z,99635.54
2023-02-18T16:52:19.673Z,99635.52
2023-02-18T16:57:12.546Z,99631.98
2023-02-18T17:02:05.561Z,99628.52
2023-02-18T17:06:58.333Z,99629.55
2023-02-18T17:11:53.265Z,99628.07
2023-02-18T17:16:51.568Z,99626.55
2023-02-18T17:21:46.977Z,99632.69
2023-02-18T17:26:41.430Z,99627.13
2023-02-18T17:31:44.661Z,99618.95
2023-02-18T17:36:38.768Z,99621.98
2023-02-18T17:41:31.539Z,99622.92
2023-02-18T17:46:24.408Z,99620.72
2023-02-18T17:51:29.734Z,99617.69
2023-02-18T17:56:23.675Z,99620.45
2023-02-18T18:01:17.325Z,99615.58
2023-02-18T18:06:18.848Z,99617.25
2023-02-18T18:11:17.525Z,99611.13
2023-02-18T18:16:16.150Z,99605.02
2023-02-18T18:21:20.152Z,99589.54
2023-02-18T18:26:12.916Z,99588.80
2023-02-18T18:31:06.599Z,99591.75
2023-02-18T18:36:01.345Z,99593.20
2023-02-18T18:40:55.518Z,99600.52
2023-02-18T18:45:49.567Z,99590.95
2023-02-18T18:50:44.067Z,99588.46
2023-02-18T18:55:40.857Z,99578.69
2023-02-18T19:00:44.760Z,99578.60
2023-02-18T19:05:40.566Z,99574.80
2023-02-18T19:10:36.578Z,99584.72
2023-02-18T19:15:29.881Z,99594.08
2023-02-18T19:20:27.172Z,99615.07
2023-02-18T19:25:21.470Z,99636.47
2023-02-18T19:30:34.850Z,99648.23
2023-02-18T19:35:29.221Z,99639.66
2023-02-18T19:40:25.353Z,99654.11
2023-02-18T19:45:22.737Z,99661.13
2023-02-18T19:50:20.338Z,99649.33
2023-02-18T19:55:13.019Z,99662.58
2023-02-18T20:00:09.781Z,99674.52
2023-02-18T20:05:10.014Z,99694.39
2023-02-18T20:10:03.621Z,99705.58
2023-02-18T20:14:56.420Z,99713.20
2023-02-18T20:19:49.223Z,99713.95
2023-02-18T20:24:42.593Z,99716.77
2023-02-18T20:29:36.423Z,99721.38
2023-02-18T20:34:29.569Z,99722.27
2023-02-18T20:39:22.768Z,99728.73
2023-02-18T20:44:17.289Z,99734.73
2023-02-18T20:49:14.482Z,99750.66
2023-02-18T20:54:10.170Z,99755.79
2023-02-18T20:59:06.125Z,99751.98
2023-02-18T21:03:59.562Z,99756.23
2023-02-18T21:08:54.374Z,99763.43
2023-02-18T21:13:49.065Z,99771.52
2023-02-18T21:18:42.677Z,99777.74
2023-02-18T21:23:36.535Z,99775.70
2023-02-18T21:28:29.283Z,99773.52
2023-02-18T21:33:22.074Z,99780.34
2023-02-18T21:38:14.856Z,99787.77
2023-02-18T21:43:07.712Z,99800.20
2023-02-18T21:48:20.483Z,99814.74
2023-02-18T21:53:13.598Z,99818.27
2023-02-18T21:58:06.438Z,99822.75
2023-02-18T22:02:59.705Z,99821.76
2023-02-18T22:07:55.549Z,99831.45
2023-02-18T22:12:48.322Z,99847.52
2023-02-18T22:17:41.126Z,99868.83
2023-02-18T22:22:33.994Z,99878.04
2023-02-18T22:27:27.834Z,99876.33
2023-02-18T22:32:21.219Z,99893.33
2023-02-18T22:37:14.130Z,99899.86
2023-02-18T22:42:06.956Z,99896.73
2023-02-18T22:46:59.769Z,99905.82
2023-02-18T22:51:55.030Z,99904.26
2023-02-18T22:56:49.029Z,99910.86
2023-02-18T23:01:44.471Z,99921.05
2023-02-18T23:06:38.790Z,99921.96
2023-02-18T23:11:31.696Z,99929.20
2023-02-18T23:16:24.497Z,99927.23
2023-02-18T23:21:21.362Z,99938.01
2023-02-18T23:26:17.730Z,99946.47
2023-02-18T23:31:10.901Z,99952.77
2023-02-18T23:36:16.920Z,99954.70
2023-02-18T23:41:12.428Z,99958.20
2023-02-18T23:46:05.357Z,99957.16
2023-02-18T23:51:02.500Z,99967.42
2023-02-18T23:56:27.923Z,99965.27
